sensor_id;sensor_type;location;lat;lon;timestamp;pressure;altitude;pressure_sealevel;temperature;humidity
64544;BME280;50936;51.660;5.616;2022-09-09T00:02:27;100475.63;;;13.63;100.00
64544;BME280;50936;51.660;5.616;2022-09-09T00:07:44;100470.72;;;13.57;100.00
64544;BME280;50936;51.660;5.616;2022-09-09T00:10:38;100474.44;;;13.56;100.00
64544;BME280;50936;51.660;5.616;2022-09-09T00:16:00;100470.41;;;13.50;100.00
64544;BME280;50936;51.660;5.616;2022-09-09T00:21:38;100466.09;;;13.47;100.00
64544;BME280;50936;51.660;5.616;2022-09-09T00:27:32;100466.78;;;13.40;100.00
64544;BME280;50936;51.660;5.616;2022-09-09T00:30:26;100459.50;;;13.40;100.00
64544;BME280;50936;51.660;5.616;2022-09-09T00:33:03;100456.06;;;13.38;100.00
64544;BME280;50936;51.660;5.616;2022-09-09T00:35:42;100458.03;;;13.36;100.00
64544;BME280;50936;51.660;5.616;2022-09-09T00:41:00;100457.44;;;13.33;100.00
64544;BME280;50936;51.660;5.616;2022-09-09T00:43:38;100454.75;;;13.33;100.00
64544;BME280;50936;51.660;5.616;2022-09-09T00:57:31;100439.13;;;13.25;100.00
64544;BME280;50936;51.660;5.616;2022-09-09T01:00:19;100439.13;;;13.25;100.00
64544;BME280;50936;51.660;5.616;2022-09-09T01:06:36;100426.81;;;13.21;100.00
64544;BME280;50936;51.660;5.616;2022-09-09T01:09:38;100416.69;;;13.23;100.00
64544;BME280;50936;51.660;5.616;2022-09-09T01:12:16;100423.09;;;13.22;100.00
64544;BME280;50936;51.660;5.616;2022-09-09T01:15:09;100428.53;;;13.22;100.00
64544;BME280;50936;51.660;5.616;2022-09-09T01:18:04;100439.38;;;13.22;100.00
64544;BME280;50936;51.660;5.616;2022-09-09T01:26:34;100442.22;;;13.20;100.00
64544;BME280;50936;51.660;5.616;2022-09-09T01:29:17;100435.94;;;13.20;100.00
64544;BME280;50936;51.660;5.616;2022-09-09T01:32:35;100445.09;;;13.19;100.00
64544;BME280;50936;51.660;5.616;2022-09-09T01:35:18;100432.50;;;13.18;100.00
64544;BME280;50936;51.660;5.616;2022-09-09T01:37:56;100423.66;;;13.16;100.00
64544;BME280;50936;51.660;5.616;2022-09-09T01:40:26;100424.50;;;13.16;100.00
64544;BME280;50936;51.660;5.616;2022-09-09T01:42:56;100423.38;;;13.19;100.00
64544;BME280;50936;51.660;5.616;2022-09-09T01:45:23;100423.38;;;13.19;100.00
64544;BME280;50936;51.660;5.616;2022-09-09T01:47:52;100428.53;;;13.22;100.00
64544;BME280;50936;51.660;5.616;2022-09-09T01:50:39;100425.09;;;13.20;100.00
64544;BME280;50936;51.660;5.616;2022-09-09T01:53:07;100433.94;;;13.22;100.00
64544;BME280;50936;51.660;5.616;2022-09-09T01:55:39;100414.00;;;13.23;100.00
64544;BME280;50936;51.660;5.616;2022-09-09T01:58:39;100418.41;;;13.24;100.00
64544;BME280;50936;51.660;5.616;2022-09-09T02:01:18;100410.25;;;13.24;100.00
64544;BME280;50936;51.660;5.616;2022-09-09T02:03:55;100415.69;;;13.24;100.00
64544;BME280;50936;51.660;5.616;2022-09-09T02:06:31;100409.66;;;13.20;100.00
64544;BME280;50936;51.660;5.616;2022-09-09T02:09:18;100407.84;;;13.21;100.00
64544;BME280;50936;51.660;5.616;2022-09-09T02:11:59;100407.13;;;13.19;100.00
64544;BME280;50936;51.660;5.616;2022-09-09T02:14:50;100403.53;;;13.18;100.00
64544;BME280;50936;51.660;5.616;2022-09-09T02:17:30;100399.72;;;13.21;100.00
64544;BME280;50936;51.660;5.616;2022-09-09T02:20:13;100398.56;;;13.23;100.00
64544;BME280;50936;51.660;5.616;2022-09-09T02:23:00;100394.00;;;13.24;100.00
64544;BME280;50936;51.660;5.616;2022-09-09T02:25:29;100401.59;;;13.30;100.00
64544;BME280;50936;51.660;5.616;2022-09-09T02:28:10;100398.00;;;13.29;100.00
64544;BME280;50936;51.660;5.616;2022-09-09T02:30:42;100398.00;;;13.29;100.00
64544;BME280;50936;51.660;5.616;2022-09-09T02:33:15;100394.34;;;13.31;100.00
64544;BME280;50936;51.660;5.616;2022-09-09T02:35:49;100394.34;;;13.31;100.00
64544;BME280;50936;51.660;5.616;2022-09-09T02:38:21;100389.78;;;13.31;100.00
64544;BME280;50936;51.660;5.616;2022-09-09T02:41:05;100400.63;;;13.31;100.00
64544;BME280;50936;51.660;5.616;2022-09-09T02:43:34;100401.50;;;13.32;100.00
64544;BME280;50936;51.660;5.616;2022-09-09T02:49:01;100402.34;;;13.32;100.00
64544;BME280;50936;51.660;5.616;2022-09-09T02:54:30;100403.81;;;13.36;100.00
64544;BME280;50936;51.660;5.616;2022-09-09T02:57:11;100396.94;;;13.32;100.00
64544;BME280;50936;51.660;5.616;2022-09-09T02:59:40;100402.84;;;13.26;100.00
64544;BME280;50936;51.660;5.616;2022-09-09T03:02:08;100405.31;;;13.29;100.00
64544;BME280;50936;51.660;5.616;2022-09-09T03:04:38;100402.59;;;13.29;100.00
64544;BME280;50936;51.660;5.616;2022-09-09T03:07:07;100405.31;;;13.29;100.00
64544;BME280;50936;51.660;5.616;2022-09-09T03:09:34;100407.16;;;13.28;100.00
64544;BME280;50936;51.660;5.616;2022-09-09T03:12:01;100407.03;;;13.30;100.00
64544;BME280;50936;51.660;5.616;2022-09-09T03:14:32;100413.44;;;13.29;100.00
64544;BME280;50936;51.660;5.616;2022-09-09T03:16:59;100409.75;;;13.30;100.00
64544;BME280;50936;51.660;5.616;2022-09-09T03:19:30;100409.66;;;13.32;100.00
64544;BME280;50936;51.660;5.616;2022-09-09T03:21:58;100402.34;;;13.32;100.00
64544;BME280;50936;51.660;5.616;2022-09-09T03:24:28;100408.50;;;13.34;100.00
64544;BME280;50936;51.660;5.616;2022-09-09T03:26:55;100412.66;;;13.38;100.00
64544;BME280;50936;51.660;5.616;2022-09-09T03:29:22;100410.66;;;13.40;100.00
64544;BME280;50936;51.660;5.616;2022-09-09T03:31:51;100405.97;;;13.42;100.00
64544;BME280;50936;51.660;5.616;2022-09-09T03:34:19;100407.81;;;13.42;100.00
64544;BME280;50936;51.660;5.616;2022-09-09T03:36:46;100408.53;;;13.44;100.00
64544;BME280;50936;51.660;5.616;2022-09-09T03:39:16;100402.97;;;13.45;100.00
64544;BME280;50936;51.660;5.616;2022-09-09T03:41:43;100414.25;;;13.41;100.00
64544;BME280;50936;51.660;5.616;2022-09-09T03:44:11;100416.09;;;13.40;100.00
64544;BME280;50936;51.660;5.616;2022-09-09T03:46:40;100420.09;;;13.46;100.00
64544;BME280;50936;51.660;5.616;2022-09-09T03:49:07;100422.69;;;13.47;100.00
64544;BME280;50936;51.660;5.616;2022-09-09T03:51:34;100417.00;;;13.51;100.00
64544;BME280;50936;51.660;5.616;2022-09-09T03:54:04;100413.28;;;13.52;100.00
64544;BME280;50936;51.660;5.616;2022-09-09T03:56:34;100407.72;;;13.53;100.00
64544;BME280;50936;51.660;5.616;2022-09-09T03:59:03;100411.03;;;13.57;100.00
64544;BME280;50936;51.660;5.616;2022-09-09T04:01:30;100407.34;;;13.58;100.00
64544;BME280;50936;51.660;5.616;2022-09-09T04:03:57;100407.06;;;13.61;100.00
64544;BME280;50936;51.660;5.616;2022-09-09T04:06:25;100407.63;;;13.64;100.00
64544;BME280;50936;51.660;5.616;2022-09-09T04:08:52;100403.06;;;13.65;100.00
64544;BME280;50936;51.660;5.616;2022-09-09T04:11:20;100392.22;;;13.65;100.00
64544;BME280;50936;51.660;5.616;2022-09-09T04:13:50;100395.38;;;13.70;100.00
64544;BME280;50936;51.660;5.616;2022-09-09T04:16:17;100396.81;;;13.74;100.00
64544;BME280;50936;51.660;5.616;2022-09-09T04:18:45;100398.53;;;13.75;100.00
64544;BME280;50936;51.660;5.616;2022-09-09T04:21:15;100397.41;;;13.78;100.00
64544;BME280;50936;51.660;5.616;2022-09-09T04:23:42;100391.97;;;13.78;100.00
64544;BME280;50936;51.660;5.616;2022-09-09T04:26:09;100386.41;;;13.79;100.00
64544;BME280;50936;51.660;5.616;2022-09-09T04:28:37;100388.25;;;13.79;100.00
64544;BME280;50936;51.660;5.616;2022-09-09T04:31:18;100389.53;;;13.84;100.00
64544;BME280;50936;51.660;5.616;2022-09-09T04:33:52;100383.72;;;13.89;100.00
64544;BME280;50936;51.660;5.616;2022-09-09T04:36:20;100383.44;;;13.92;100.00
64544;BME280;50936;51.660;5.616;2022-09-09T04:38:50;100395.16;;;13.93;100.00
64544;BME280;50936;51.660;5.616;2022-09-09T04:41:17;100387.72;;;13.95;100.00
64544;BME280;50936;51.660;5.616;2022-09-09T04:43:47;100387.31;;;13.99;100.00
64544;BME280;50936;51.660;5.616;2022-09-09T04:46:15;100386.88;;;14.04;100.00
64544;BME280;50936;51.660;5.616;2022-09-09T04:48:48;100379.72;;;14.03;100.00
64544;BME280;50936;51.660;5.616;2022-09-09T04:51:16;100378.03;;;14.02;100.00
64544;BME280;50936;51.660;5.616;2022-09-09T04:53:45;100375.19;;;14.03;100.00
64544;BME280;50936;51.660;5.616;2022-09-09T04:56:17;100379.44;;;14.06;100.00
64544;BME280;50936;51.660;5.616;2022-09-09T04:58:50;100375.75;;;14.07;100.00
64544;BME280;50936;51.660;5.616;2022-09-09T05:01:21;100378.91;;;14.12;100.00
64544;BME280;50936;51.660;5.616;2022-09-09T05:03:52;100379.03;;;14.20;100.00
64544;BME280;50936;51.660;5.616;2022-09-09T05:06:22;100377.31;;;14.19;100.00
64544;BME280;50936;51.660;5.616;2022-09-09T05:08:55;100386.91;;;14.23;100.00
64544;BME280;50936;51.660;5.616;2022-09-09T05:11:30;100381.75;;;14.20;100.00
64544;BME280;50936;51.660;5.616;2022-09-09T05:14:09;100382.75;;;14.19;100.00
64544;BME280;50936;51.660;5.616;2022-09-09T05:16:39;100380.91;;;14.30;100.00
64544;BME280;50936;51.660;5.616;2022-09-09T05:19:06;100378.34;;;14.28;100.00
64544;BME280;50936;51.660;5.616;2022-09-09T05:21:44;100371.19;;;14.27;100.00
64544;BME280;50936;51.660;5.616;2022-09-09T05:24:12;100374.91;;;14.26;100.00
64544;BME280;50936;51.660;5.616;2022-09-09T05:26:39;100375.75;;;14.27;100.00
64544;BME280;50936;51.660;5.616;2022-09-09T05:29:06;100375.47;;;14.30;100.00
64544;BME280;50936;51.660;5.616;2022-09-09T05:31:35;100373.78;;;14.29;100.00
64544;BME280;50936;51.660;5.616;2022-09-09T05:34:08;100373.03;;;14.27;100.00
64544;BME280;50936;51.660;5.616;2022-09-09T05:36:34;100372.06;;;14.28;100.00
64544;BME280;50936;51.660;5.616;2022-09-09T05:39:02;100365.63;;;14.29;100.00
64544;BME280;50936;51.660;5.616;2022-09-09T05:41:31;100375.47;;;14.30;100.00
64544;BME280;50936;51.660;5.616;2022-09-09T05:44:00;100369.34;;;14.28;100.00
64544;BME280;50936;51.660;5.616;2022-09-09T05:46:27;100361.47;;;14.24;100.00
64544;BME280;50936;51.660;5.616;2022-09-09T05:48:55;100362.34;;;14.25;100.00
64544;BME280;50936;51.660;5.616;2022-09-09T05:51:29;100363.59;;;14.21;100.00
64544;BME280;50936;51.660;5.616;2022-09-09T05:54:04;100367.91;;;14.23;100.00
64544;BME280;50936;51.660;5.616;2022-09-09T05:56:34;100376.91;;;14.34;100.00
64544;BME280;50936;51.660;5.616;2022-09-09T05:59:01;100375.66;;;14.38;100.00
64544;BME280;50936;51.660;5.616;2022-09-09T06:01:31;100382.34;;;14.43;100.00
64544;BME280;50936;51.660;5.616;2022-09-09T06:04:01;100382.19;;;14.45;100.00
64544;BME280;50936;51.660;5.616;2022-09-09T06:06:34;100385.78;;;14.46;100.00
64544;BME280;50936;51.660;5.616;2022-09-09T06:09:09;100391.50;;;14.52;100.00
64544;BME280;50936;51.660;5.616;2022-09-09T06:11:40;100389.25;;;14.57;100.00
64544;BME280;50936;51.660;5.616;2022-09-09T06:14:08;100392.53;;;14.61;100.00
64544;BME280;50936;51.660;5.616;2022-09-09T06:16:36;100399.56;;;14.63;100.00
64544;BME280;50936;51.660;5.616;2022-09-09T06:19:09;100397.53;;;14.66;100.00
64544;BME280;50936;51.660;5.616;2022-09-09T06:21:39;100394.81;;;14.66;100.00
64544;BME280;50936;51.660;5.616;2022-09-09T06:24:08;100397.53;;;14.66;100.00
64544;BME280;50936;51.660;5.616;2022-09-09T06:26:37;100395.53;;;14.68;100.00
64544;BME280;50936;51.660;5.616;2022-09-09T06:29:09;100389.78;;;14.71;100.00
64544;BME280;50936;51.660;5.616;2022-09-09T06:31:37;100380.50;;;14.73;100.00
64544;BME280;50936;51.660;5.616;2022-09-09T06:34:11;100386.38;;;14.78;100.00
64544;BME280;50936;51.660;5.616;2022-09-09T06:36:41;100387.19;;;14.89;100.00
64544;BME280;50936;51.660;5.616;2022-09-09T06:39:08;100382.06;;;14.95;100.00
64544;BME280;50936;51.660;5.616;2022-09-09T06:41:41;100381.44;;;15.01;100.00
64544;BME280;50936;51.660;5.616;2022-09-09T06:44:29;100386.31;;;15.08;100.00
64544;BME280;50936;51.660;5.616;2022-09-09T06:47:01;100382.72;;;15.17;100.00
64544;BME280;50936;51.660;5.616;2022-09-09T06:49:30;100394.56;;;15.26;100.00
64544;BME280;50936;51.660;5.616;2022-09-09T06:51:58;100389.25;;;15.34;100.00
64544;BME280;50936;51.660;5.616;2022-09-09T06:54:25;100385.34;;;15.36;100.00
64544;BME280;50936;51.660;5.616;2022-09-09T06:56:52;100383.06;;;15.42;100.00
64544;BME280;50936;51.660;5.616;2022-09-09T06:59:22;100375.72;;;15.42;100.00
64544;BME280;50936;51.660;5.616;2022-09-09T07:01:52;100378.31;;;15.44;100.00
64544;BME280;50936;51.660;5.616;2022-09-09T07:04:22;100375.84;;;15.50;100.00
64544;BME280;50936;51.660;5.616;2022-09-09T07:06:49;100374.34;;;15.66;100.00
64544;BME280;50936;51.660;5.616;2022-09-09T07:09:20;100374.34;;;15.75;100.00
64544;BME280;50936;51.660;5.616;2022-09-09T07:11:51;100366.56;;;15.81;100.00
64544;BME280;50936;51.660;5.616;2022-09-09T07:14:21;100376.00;;;15.86;100.00
64544;BME280;50936;51.660;5.616;2022-09-09T07:16:53;100375.38;;;15.92;100.00
64544;BME280;50936;51.660;5.616;2022-09-09T07:19:26;100378.06;;;16.20;100.00
64544;BME280;50936;51.660;5.616;2022-09-09T07:21:54;100376.28;;;16.29;100.00
64544;BME280;50936;51.660;5.616;2022-09-09T07:24:23;100391.81;;;16.90;100.00
64544;BME280;50936;51.660;5.616;2022-09-09T07:26:50;100382.47;;;17.11;100.00
64544;BME280;50936;51.660;5.616;2022-09-09T07:29:19;100378.13;;;17.61;100.00
64544;BME280;50936;51.660;5.616;2022-09-09T07:31:47;100381.75;;;17.69;100.00
64544;BME280;50936;51.660;5.616;2022-09-09T07:34:19;100377.41;;;17.93;100.00
64544;BME280;50936;51.660;5.616;2022-09-09T07:36:46;100387.94;;;18.39;98.87
64544;BME280;50936;51.660;5.616;2022-09-09T07:39:15;100385.72;;;18.59;96.01
64544;BME280;50936;51.660;5.616;2022-09-09T07:41:49;100380.06;;;18.27;96.33
64544;BME280;50936;51.660;5.616;2022-09-09T07:44:22;100378.97;;;18.04;95.57
64544;BME280;50936;51.660;5.616;2022-09-09T07:47:02;100371.88;;;17.77;98.58
64544;BME280;50936;51.660;5.616;2022-09-09T07:49:35;100376.56;;;17.58;99.90
64544;BME280;50936;51.660;5.616;2022-09-09T07:52:03;100376.97;;;17.37;100.00
64544;BME280;50936;51.660;5.616;2022-09-09T07:54:31;100386.28;;;17.26;100.00
64544;BME280;50936;51.660;5.616;2022-09-09T07:57:00;100385.91;;;17.21;100.00
64544;BME280;50936;51.660;5.616;2022-09-09T07:59:29;100381.09;;;17.15;100.00
64544;BME280;50936;51.660;5.616;2022-09-09T08:01:57;100386.19;;;17.10;100.00
64544;BME280;50936;51.660;5.616;2022-09-09T08:04:28;100381.22;;;17.05;100.00
64544;BME280;50936;51.660;5.616;2022-09-09T08:06:59;100390.56;;;17.03;100.00
64544;BME280;50936;51.660;5.616;2022-09-09T08:09:33;100384.41;;;17.01;100.00
64544;BME280;50936;51.660;5.616;2022-09-09T08:12:07;100394.63;;;16.99;100.00
64544;BME280;50936;51.660;5.616;2022-09-09T08:14:34;100392.91;;;16.98;100.00
64544;BME280;50936;51.660;5.616;2022-09-09T08:17:02;100397.41;;;17.07;100.00
64544;BME280;50936;51.660;5.616;2022-09-09T08:19:30;100393.03;;;17.14;100.00
64544;BME280;50936;51.660;5.616;2022-09-09T08:22:02;100397.63;;;17.13;100.00
64544;BME280;50936;51.660;5.616;2022-09-09T08:24:31;100402.25;;;17.13;100.00
64544;BME280;50936;51.660;5.616;2022-09-09T08:26:58;100395.44;;;17.17;100.00
64544;BME280;50936;51.660;5.616;2022-09-09T08:29:26;100403.66;;;17.25;100.00
64544;BME280;50936;51.660;5.616;2022-09-09T08:31:57;100392.44;;;17.28;100.00
64544;BME280;50936;51.660;5.616;2022-09-09T08:34:25;100392.28;;;17.30;99.18
64544;BME280;50936;51.660;5.616;2022-09-09T08:36:55;100408.28;;;17.25;100.00
64544;BME280;50936;51.660;5.616;2022-09-09T08:39:29;100404.00;;;17.22;99.85
64544;BME280;50936;51.660;5.616;2022-09-09T08:44:57;100403.31;;;17.20;100.00
64544;BME280;50936;51.660;5.616;2022-09-09T08:50:22;100416.28;;;17.18;99.71
64544;BME280;50936;51.660;5.616;2022-09-09T08:55:58;100422.03;;;17.15;100.00
64544;BME280;50936;51.660;5.616;2022-09-09T08:58:45;100421.72;;;17.18;99.20
64544;BME280;50936;51.660;5.616;2022-09-09T09:01:28;100411.50;;;17.20;98.75
64544;BME280;50936;51.660;5.616;2022-09-09T09:10:32;100422.38;;;17.38;98.16
64544;BME280;50936;51.660;5.616;2022-09-09T09:13:20;100424.91;;;17.40;97.65
64544;BME280;50936;51.660;5.616;2022-09-09T09:15:58;100418.75;;;17.38;97.15
64544;BME280;50936;51.660;5.616;2022-09-09T09:18:33;100418.06;;;17.36;97.71
64544;BME280;50936;51.660;5.616;2022-09-09T09:21:14;100429.31;;;17.32;96.63
64544;BME280;50936;51.660;5.616;2022-09-09T09:24:00;100431.69;;;17.27;97.28
64544;BME280;50936;51.660;5.616;2022-09-09T09:26:34;100431.63;;;17.19;97.65
64544;BME280;50936;51.660;5.616;2022-09-09T09:29:14;100432.31;;;17.21;98.35
64544;BME280;50936;51.660;5.616;2022-09-09T09:31:55;100432.00;;;17.24;98.33
64544;BME280;50936;51.660;5.616;2022-09-09T09:34:25;100421.94;;;17.25;98.09
64544;BME280;50936;51.660;5.616;2022-09-09T09:36:59;100427.59;;;17.31;98.02
64544;BME280;50936;51.660;5.616;2022-09-09T09:39:33;100430.38;;;17.40;96.64
64544;BME280;50936;51.660;5.616;2022-09-09T09:42:26;100417.63;;;17.48;96.93
64544;BME280;50936;51.660;5.616;2022-09-09T09:44:55;100426.91;;;17.56;95.55
64544;BME280;50936;51.660;5.616;2022-09-09T09:47:23;100421.66;;;17.62;95.86
64544;BME280;50936;51.660;5.616;2022-09-09T09:50:17;100425.09;;;17.73;94.50
64544;BME280;50936;51.660;5.616;2022-09-09T09:52:56;100425.09;;;17.73;94.27
64544;BME280;50936;51.660;5.616;2022-09-09T09:55:28;100413.84;;;17.76;94.34
64544;BME280;50936;51.660;5.616;2022-09-09T09:58:02;100419.84;;;17.79;93.71
64544;BME280;50936;51.660;5.616;2022-09-09T10:00:33;100415.91;;;17.82;93.12
64544;BME280;50936;51.660;5.616;2022-09-09T10:03:23;100416.59;;;17.84;93.61
64544;BME280;50936;51.660;5.616;2022-09-09T10:05:52;100413.44;;;17.88;92.80
64544;BME280;50936;51.660;5.616;2022-09-09T10:08:19;100414.97;;;17.91;92.88
64544;BME280;50936;51.660;5.616;2022-09-09T10:11:15;100405.44;;;17.95;91.63
64544;BME280;50936;51.660;5.616;2022-09-09T10:19:33;100415.31;;;17.96;91.72
64544;BME280;50936;51.660;5.616;2022-09-09T10:36:25;100430.94;;;16.99;100.00
64544;BME280;50936;51.660;5.616;2022-09-09T10:42:07;100437.44;;;16.98;100.00
64544;BME280;50936;51.660;5.616;2022-09-09T10:45:09;100437.34;;;17.08;100.00
64544;BME280;50936;51.660;5.616;2022-09-09T10:50:44;100443.19;;;17.13;100.00
64544;BME280;50936;51.660;5.616;2022-09-09T10:53:51;100444.44;;;17.01;100.00
64544;BME280;50936;51.660;5.616;2022-09-09T10:56:27;100443.03;;;16.97;100.00
64544;BME280;50936;51.660;5.616;2022-09-09T11:04:38;100438.13;;;16.82;100.00
64544;BME280;50936;51.660;5.616;2022-09-09T11:07:12;100434.59;;;16.72;100.00
64544;BME280;50936;51.660;5.616;2022-09-09T11:09:53;100440.28;;;16.61;100.00
64544;BME280;50936;51.660;5.616;2022-09-09T11:12:27;100440.38;;;16.51;100.00
64544;BME280;50936;51.660;5.616;2022-09-09T11:15:06;100441.72;;;16.47;100.00
64544;BME280;50936;51.660;5.616;2022-09-09T11:17:44;100441.94;;;16.53;100.00
64544;BME280;50936;51.660;5.616;2022-09-09T11:20:15;100436.25;;;16.65;100.00
64544;BME280;50936;51.660;5.616;2022-09-09T11:22:48;100440.75;;;16.74;100.00
64544;BME280;50936;51.660;5.616;2022-09-09T11:25:27;100430.66;;;16.84;100.00
64544;BME280;50936;51.660;5.616;2022-09-09T11:28:40;100437.50;;;16.88;100.00
64544;BME280;50936;51.660;5.616;2022-09-09T11:31:16;100432.19;;;16.87;100.00
64544;BME280;50936;51.660;5.616;2022-09-09T11:37:08;100432.13;;;16.79;100.00
64544;BME280;50936;51.660;5.616;2022-09-09T11:42:43;100430.34;;;16.87;100.00
64544;BME280;50936;51.660;5.616;2022-09-09T11:45:20;100431.75;;;16.91;100.00
64544;BME280;50936;51.660;5.616;2022-09-09T11:47:53;100426.84;;;16.95;100.00
64544;BME280;50936;51.660;5.616;2022-09-09T11:52:49;100432.84;;;16.99;100.00
64544;BME280;50936;51.660;5.616;2022-09-09T11:55:35;100434.91;;;17.05;100.00
64544;BME280;50936;51.660;5.616;2022-09-09T11:58:05;100434.09;;;17.12;100.00
64544;BME280;50936;51.660;5.616;2022-09-09T12:00:44;100434.03;;;17.22;100.00
64544;BME280;50936;51.660;5.616;2022-09-09T12:03:48;100435.72;;;17.23;100.00
64544;BME280;50936;51.660;5.616;2022-09-09T12:06:25;100424.81;;;17.23;100.00
64544;BME280;50936;51.660;5.616;2022-09-09T12:09:18;100425.78;;;17.14;100.00
64544;BME280;50936;51.660;5.616;2022-09-09T12:11:52;100433.59;;;17.09;100.00
64544;BME280;50936;51.660;5.616;2022-09-09T12:14:36;100433.91;;;17.06;100.00
64544;BME280;50936;51.660;5.616;2022-09-09T12:17:24;100434.88;;;16.97;100.00
64544;BME280;50936;51.660;5.616;2022-09-09T12:20:16;100431.44;;;16.95;100.00
64544;BME280;50936;51.660;5.616;2022-09-09T12:31:42;100416.38;;;17.35;100.00
64544;BME280;50936;51.660;5.616;2022-09-09T12:34:22;100410.66;;;17.54;100.00
64544;BME280;50936;51.660;5.616;2022-09-09T12:36:57;100416.31;;;17.87;100.00
64544;BME280;50936;51.660;5.616;2022-09-09T12:39:34;100424.28;;;18.15;100.00
64544;BME280;50936;51.660;5.616;2022-09-09T12:42:04;100408.97;;;18.30;100.00
64544;BME280;50936;51.660;5.616;2022-09-09T12:44:31;100411.84;;;18.37;100.00
64544;BME280;50936;51.660;5.616;2022-09-09T12:47:01;100410.69;;;18.39;100.00
64544;BME280;50936;51.660;5.616;2022-09-09T12:49:31;100410.50;;;18.49;100.00
64544;BME280;50936;51.660;5.616;2022-09-09T12:52:04;100400.81;;;18.63;98.47
64544;BME280;50936;51.660;5.616;2022-09-09T12:54:35;100407.97;;;18.64;97.72
64544;BME280;50936;51.660;5.616;2022-09-09T12:57:04;100409.69;;;18.65;97.22
64544;BME280;50936;51.660;5.616;2022-09-09T12:59:38;100401.81;;;18.62;97.22
64544;BME280;50936;51.660;5.616;2022-09-09T13:02:21;100403.84;;;18.52;97.78
64544;BME280;50936;51.660;5.616;2022-09-09T13:04:51;100394.78;;;18.43;98.83
64544;BME280;50936;51.660;5.616;2022-09-09T13:07:21;100406.91;;;18.40;97.72
64544;BME280;50936;51.660;5.616;2022-09-09T13:09:48;100399.03;;;18.29;98.89
64544;BME280;50936;51.660;5.616;2022-09-09T13:12:18;100397.47;;;18.18;99.91
64544;BME280;50936;51.660;5.616;2022-09-09T13:14:50;100410.22;;;18.01;100.00
64544;BME280;50936;51.660;5.616;2022-09-09T13:17:24;100402.94;;;17.76;100.00
64544;BME280;50936;51.660;5.616;2022-09-09T13:19:56;100409.50;;;17.30;100.00
64544;BME280;50936;51.660;5.616;2022-09-09T13:22:33;100408.38;;;16.89;100.00
64544;BME280;50936;51.660;5.616;2022-09-09T13:27:34;100405.34;;;16.38;100.00
64544;BME280;50936;51.660;5.616;2022-09-09T13:33:01;100413.34;;;16.22;100.00
64544;BME280;50936;51.660;5.616;2022-09-09T13:35:30;100406.97;;;16.31;100.00
64544;BME280;50936;51.660;5.616;2022-09-09T13:37:59;100398.56;;;16.42;100.00
64544;BME280;50936;51.660;5.616;2022-09-09T13:40:34;100399.00;;;16.55;100.00
64544;BME280;50936;51.660;5.616;2022-09-09T13:43:03;100391.38;;;16.77;100.00
64544;BME280;50936;51.660;5.616;2022-09-09T13:45:31;100398.59;;;17.04;100.00
64544;BME280;50936;51.660;5.616;2022-09-09T13:48:09;100384.78;;;17.32;100.00
64544;BME280;50936;51.660;5.616;2022-09-09T13:50:36;100371.81;;;17.60;100.00
64544;BME280;50936;51.660;5.616;2022-09-09T13:53:04;100376.91;;;17.89;100.00
64544;BME280;50936;51.660;5.616;2022-09-09T13:55:31;100380.38;;;18.08;100.00
64544;BME280;50936;51.660;5.616;2022-09-09T13:58:00;100384.34;;;18.30;100.00
64544;BME280;50936;51.660;5.616;2022-09-09T14:00:30;100384.88;;;18.58;100.00
64544;BME280;50936;51.660;5.616;2022-09-09T14:03:00;100384.41;;;18.96;100.00
64544;BME280;50936;51.660;5.616;2022-09-09T14:05:30;100377.91;;;19.05;100.00
64544;BME280;50936;51.660;5.616;2022-09-09T14:07:59;100377.56;;;19.00;100.00
64544;BME280;50936;51.660;5.616;2022-09-09T14:10:29;100386.09;;;18.97;100.00
64544;BME280;50936;51.660;5.616;2022-09-09T14:12:56;100388.50;;;19.00;100.00
64544;BME280;50936;51.660;5.616;2022-09-09T14:15:23;100377.91;;;19.05;100.00
64544;BME280;50936;51.660;5.616;2022-09-09T14:17:50;100384.72;;;19.01;99.28
64544;BME280;50936;51.660;5.616;2022-09-09T14:20:18;100381.66;;;18.88;98.05
64544;BME280;50936;51.660;5.616;2022-09-09T14:22:45;100370.38;;;18.74;98.07
64544;BME280;50936;51.660;5.616;2022-09-09T14:25:12;100369.00;;;18.62;97.62
64544;BME280;50936;51.660;5.616;2022-09-09T14:27:40;100375.31;;;18.54;99.01
64544;BME280;50936;51.660;5.616;2022-09-09T14:30:08;100375.47;;;18.53;100.00
64544;BME280;50936;51.660;5.616;2022-09-09T14:32:36;100372.06;;;18.75;100.00
64544;BME280;50936;51.660;5.616;2022-09-09T14:35:03;100374.81;;;19.16;97.99
64544;BME280;50936;51.660;5.616;2022-09-09T14:37:30;100379.03;;;19.35;96.14
64544;BME280;50936;51.660;5.616;2022-09-09T14:39:57;100368.91;;;19.36;96.50
64544;BME280;50936;51.660;5.616;2022-09-09T14:42:25;100371.84;;;19.34;95.87
64544;BME280;50936;51.660;5.616;2022-09-09T14:44:53;100371.34;;;19.31;97.35
64544;BME280;50936;51.660;5.616;2022-09-09T14:47:20;100372.91;;;19.25;94.73
64544;BME280;50936;51.660;5.616;2022-09-09T14:49:47;100377.47;;;19.41;94.90
64544;BME280;50936;51.660;5.616;2022-09-09T14:52:16;100372.31;;;19.54;93.21
64544;BME280;50936;51.660;5.616;2022-09-09T14:54:43;100371.59;;;19.60;92.85
64544;BME280;50936;51.660;5.616;2022-09-09T14:57:10;100368.19;;;19.58;92.25
64544;BME280;50936;51.660;5.616;2022-09-09T14:59:36;100370.59;;;19.53;93.81
64544;BME280;50936;51.660;5.616;2022-09-09T15:02:04;100368.38;;;19.49;93.73
64544;BME280;50936;51.660;5.616;2022-09-09T15:04:32;100369.06;;;19.42;93.38
64544;BME280;50936;51.660;5.616;2022-09-09T15:06:59;100365.88;;;19.31;92.27